sensor_id;sensor_type;location;lat;lon;timestamp;pressure;altitude;pressure_sealevel;temperature;humidity
40948;BME280;49382;-25.924;28.194;2022-07-05T00:01:15;85802.03;;;14.71;30.65
40948;BME280;49382;-25.924;28.194;2022-07-05T00:03:41;85798.29;;;14.73;30.59
40948;BME280;49382;-25.924;28.194;2022-07-05T00:06:07;85798.39;;;14.87;30.35
40948;BME280;49382;-25.924;28.194;2022-07-05T00:08:32;85798.06;;;14.24;31.14
40948;BME280;49382;-25.924;28.194;2022-07-05T00:10:58;85797.59;;;14.68;30.81
40948;BME280;49382;-25.924;28.194;2022-07-05T00:13:23;85799.16;;;14.26;31.04
40948;BME280;49382;-25.924;28.194;2022-07-05T00:15:49;85795.25;;;14.48;30.78
40948;BME280;49382;-25.924;28.194;2022-07-05T00:18:14;85796.87;;;14.68;30.31
40948;BME280;49382;-25.924;28.194;2022-07-05T00:20:40;85794.49;;;15.00;30.07
40948;BME280;49382;-25.924;28.194;2022-07-05T00:23:05;85794.44;;;14.52;30.35
40948;BME280;49382;-25.924;28.194;2022-07-05T00:25:31;85795.69;;;14.65;30.28
40948;BME280;49382;-25.924;28.194;2022-07-05T00:27:56;85795.01;;;14.53;30.18
40948;BME280;49382;-25.924;28.194;2022-07-05T00:30:21;85790.97;;;14.75;30.16
40948;BME280;49382;-25.924;28.194;2022-07-05T00:32:47;85792.27;;;14.61;30.39
40948;BME280;49382;-25.924;28.194;2022-07-05T00:35:12;85788.95;;;14.87;30.06
40948;BME280;49382;-25.924;28.194;2022-07-05T00:37:38;85790.53;;;14.59;30.42
40948;BME280;49382;-25.924;28.194;2022-07-05T00:40:05;85791.37;;;14.84;29.98
40948;BME280;49382;-25.924;28.194;2022-07-05T00:42:29;85786.66;;;14.82;30.09
40948;BME280;49382;-25.924;28.194;2022-07-05T00:44:55;85782.27;;;14.81;30.08
40948;BME280;49382;-25.924;28.194;2022-07-05T00:47:20;85784.56;;;14.55;30.38
40948;BME280;49382;-25.924;28.194;2022-07-05T00:49:45;85782.32;;;14.38;30.69
40948;BME280;49382;-25.924;28.194;2022-07-05T00:52:11;85779.74;;;14.59;30.51
40948;BME280;49382;-25.924;28.194;2022-07-05T00:54:37;85778.36;;;14.42;30.72
40948;BME280;49382;-25.924;28.194;2022-07-05T00:57:02;85780.15;;;14.12;30.74
40948;BME280;49382;-25.924;28.194;2022-07-05T00:59:28;85779.11;;;14.08;31.34
40948;BME280;49382;-25.924;28.194;2022-07-05T01:01:53;85776.06;;;14.20;31.02
40948;BME280;49382;-25.924;28.194;2022-07-05T01:04:18;85774.03;;;14.31;31.09
40948;BME280;49382;-25.924;28.194;2022-07-05T01:06:47;85768.90;;;14.07;31.04
40948;BME280;49382;-25.924;28.194;2022-07-05T01:09:12;85769.55;;;14.50;30.90
40948;BME280;49382;-25.924;28.194;2022-07-05T01:11:35;85768.10;;;14.60;30.76
40948;BME280;49382;-25.924;28.194;2022-07-05T01:14:01;85769.91;;;14.24;30.98
40948;BME280;49382;-25.924;28.194;2022-07-05T01:16:26;85766.83;;;14.31;31.14
40948;BME280;49382;-25.924;28.194;2022-07-05T01:18:52;85766.79;;;14.07;31.38
40948;BME280;49382;-25.924;28.194;2022-07-05T01:21:18;85765.06;;;13.75;31.88
40948;BME280;49382;-25.924;28.194;2022-07-05T01:23:43;85764.78;;;13.81;31.89
40948;BME280;49382;-25.924;28.194;2022-07-05T01:26:08;85764.51;;;13.67;32.09
40948;BME280;49382;-25.924;28.194;2022-07-05T01:28:33;85766.22;;;13.36;32.55
40948;BME280;49382;-25.924;28.194;2022-07-05T01:31:01;85764.01;;;13.75;32.67
40948;BME280;49382;-25.924;28.194;2022-07-05T01:33:28;85763.22;;;13.65;32.70
40948;BME280;49382;-25.924;28.194;2022-07-05T01:35:50;85763.27;;;13.51;32.98
40948;BME280;49382;-25.924;28.194;2022-07-05T01:38:15;85765.33;;;13.35;32.81
40948;BME280;49382;-25.924;28.194;2022-07-05T01:40:41;85764.57;;;13.37;33.05
40948;BME280;49382;-25.924;28.194;2022-07-05T01:43:07;85764.84;;;13.07;33.16
40948;BME280;49382;-25.924;28.194;2022-07-05T01:45:32;85767.77;;;13.36;32.67
40948;BME280;49382;-25.924;28.194;2022-07-05T01:47:58;85764.44;;;13.32;32.81
40948;BME280;49382;-25.924;28.194;2022-07-05T01:50:23;85762.69;;;13.45;32.43
40948;BME280;49382;-25.924;28.194;2022-07-05T01:52:50;85764.11;;;13.85;32.36
40948;BME280;49382;-25.924;28.194;2022-07-05T01:55:14;85763.20;;;13.59;32.32
40948;BME280;49382;-25.924;28.194;2022-07-05T01:57:39;85759.50;;;13.78;31.98
40948;BME280;49382;-25.924;28.194;2022-07-05T02:00:06;85756.62;;;13.90;31.76
40948;BME280;49382;-25.924;28.194;2022-07-05T02:02:31;85756.91;;;13.89;31.71
40948;BME280;49382;-25.924;28.194;2022-07-05T02:04:56;85754.60;;;14.02;31.81
40948;BME280;49382;-25.924;28.194;2022-07-05T02:07:22;85755.24;;;13.72;32.07
40948;BME280;49382;-25.924;28.194;2022-07-05T02:09:47;85754.14;;;13.53;32.39
40948;BME280;49382;-25.924;28.194;2022-07-05T02:12:12;85748.33;;;13.26;32.65
40948;BME280;49382;-25.924;28.194;2022-07-05T02:14:37;85748.36;;;13.71;32.24
40948;BME280;49382;-25.924;28.194;2022-07-05T02:17:04;85747.90;;;13.61;32.36
40948;BME280;49382;-25.924;28.194;2022-07-05T02:19:28;85747.32;;;13.40;32.37
40948;BME280;49382;-25.924;28.194;2022-07-05T02:21:54;85746.28;;;13.49;32.28
40948;BME280;49382;-25.924;28.194;2022-07-05T02:24:20;85739.83;;;13.55;32.17
40948;BME280;49382;-25.924;28.194;2022-07-05T02:26:44;85740.11;;;13.46;32.40
40948;BME280;49382;-25.924;28.194;2022-07-05T02:29:10;85738.34;;;13.73;32.47
40948;BME280;49382;-25.924;28.194;2022-07-05T02:31:35;85737.54;;;13.44;32.52
40948;BME280;49382;-25.924;28.194;2022-07-05T02:34:01;85735.13;;;13.04;32.94
40948;BME280;49382;-25.924;28.194;2022-07-05T02:36:26;85733.56;;;13.44;32.90
40948;BME280;49382;-25.924;28.194;2022-07-05T02:38:51;85732.35;;;13.14;32.33
40948;BME280;49382;-25.924;28.194;2022-07-05T02:41:17;85733.25;;;13.43;32.19
40948;BME280;49382;-25.924;28.194;2022-07-05T02:43:42;85732.12;;;13.54;31.91
40948;BME280;49382;-25.924;28.194;2022-07-05T02:46:08;85731.70;;;13.58;32.04
40948;BME280;49382;-25.924;28.194;2022-07-05T02:48:34;85732.95;;;13.41;32.48
40948;BME280;49382;-25.924;28.194;2022-07-05T02:50:58;85732.79;;;13.41;32.43
40948;BME280;49382;-25.924;28.194;2022-07-05T02:53:24;85729.94;;;13.22;32.75
40948;BME280;49382;-25.924;28.194;2022-07-05T02:55:48;85729.72;;;13.05;33.14
40948;BME280;49382;-25.924;28.194;2022-07-05T02:58:14;85732.02;;;12.77;33.40
40948;BME280;49382;-25.924;28.194;2022-07-05T03:00:39;85730.80;;;12.97;33.03
40948;BME280;49382;-25.924;28.194;2022-07-05T03:05:30;85730.90;;;12.80;33.28
40948;BME280;49382;-25.924;28.194;2022-07-05T03:07:55;85730.45;;;12.71;33.72
40948;BME280;49382;-25.924;28.194;2022-07-05T03:10:20;85728.76;;;13.05;33.44
40948;BME280;49382;-25.924;28.194;2022-07-05T03:12:45;85729.02;;;12.75;33.55
40948;BME280;49382;-25.924;28.194;2022-07-05T03:15:11;85728.00;;;12.86;33.59
40948;BME280;49382;-25.924;28.194;2022-07-05T03:17:36;85731.11;;;12.79;33.69
40948;BME280;49382;-25.924;28.194;2022-07-05T03:20:02;85728.95;;;13.15;33.28
40948;BME280;49382;-25.924;28.194;2022-07-05T03:22:27;85729.59;;;12.81;33.35
40948;BME280;49382;-25.924;28.194;2022-07-05T03:24:52;85730.78;;;13.36;32.96
40948;BME280;49382;-25.924;28.194;2022-07-05T03:27:18;85732.04;;;13.08;33.47
40948;BME280;49382;-25.924;28.194;2022-07-05T03:29:44;85732.84;;;13.27;33.19
40948;BME280;49382;-25.924;28.194;2022-07-05T03:32:09;85735.87;;;13.23;33.02
40948;BME280;49382;-25.924;28.194;2022-07-05T03:34:35;85739.86;;;12.88;33.24
40948;BME280;49382;-25.924;28.194;2022-07-05T03:37:01;85738.19;;;12.88;33.01
40948;BME280;49382;-25.924;28.194;2022-07-05T03:39:26;85742.71;;;13.02;32.81
40948;BME280;49382;-25.924;28.194;2022-07-05T03:41:52;85747.12;;;13.01;32.71
40948;BME280;49382;-25.924;28.194;2022-07-05T03:44:17;85748.08;;;13.32;32.65
40948;BME280;49382;-25.924;28.194;2022-07-05T03:46:42;85749.93;;;13.14;32.92
40948;BME280;49382;-25.924;28.194;2022-07-05T03:49:08;85752.91;;;13.07;33.12
40948;BME280;49382;-25.924;28.194;2022-07-05T03:51:33;85754.12;;;13.10;33.00
40948;BME280;49382;-25.924;28.194;2022-07-05T03:53:59;85756.60;;;13.03;33.59
40948;BME280;49382;-25.924;28.194;2022-07-05T03:56:25;85756.98;;;12.74;33.37
40948;BME280;49382;-25.924;28.194;2022-07-05T03:58:51;85759.15;;;12.83;33.60
40948;BME280;49382;-25.924;28.194;2022-07-05T04:01:16;85759.29;;;13.13;33.28
40948;BME280;49382;-25.924;28.194;2022-07-05T04:03:42;85761.49;;;13.06;32.87
40948;BME280;49382;-25.924;28.194;2022-07-05T04:06:07;85763.12;;;13.04;33.28
40948;BME280;49382;-25.924;28.194;2022-07-05T04:08:32;85763.65;;;12.98;33.24
40948;BME280;49382;-25.924;28.194;2022-07-05T04:10:57;85766.29;;;12.39;33.67
40948;BME280;49382;-25.924;28.194;2022-07-05T04:13:23;85767.08;;;12.38;34.00
40948;BME280;49382;-25.924;28.194;2022-07-05T04:15:47;85768.27;;;12.58;33.49
40948;BME280;49382;-25.924;28.194;2022-07-05T04:18:13;85766.38;;;12.89;33.88
40948;BME280;49382;-25.924;28.194;2022-07-05T04:20:38;85771.28;;;12.53;33.54
40948;BME280;49382;-25.924;28.194;2022-07-05T04:23:03;85772.94;;;12.69;33.39
40948;BME280;49382;-25.924;28.194;2022-07-05T04:25:29;85776.77;;;13.08;33.01
40948;BME280;49382;-25.924;28.194;2022-07-05T04:27:55;85778.91;;;13.10;32.95
40948;BME280;49382;-25.924;28.194;2022-07-05T04:30:21;85781.42;;;13.40;32.37
40948;BME280;49382;-25.924;28.194;2022-07-05T04:32:45;85782.50;;;13.16;32.60
40948;BME280;49382;-25.924;28.194;2022-07-05T04:35:11;85782.35;;;13.13;32.15
40948;BME280;49382;-25.924;28.194;2022-07-05T04:37:35;85783.79;;;13.05;32.43
40948;BME280;49382;-25.924;28.194;2022-07-05T04:40:00;85780.70;;;13.33;32.00
40948;BME280;49382;-25.924;28.194;2022-07-05T04:42:26;85784.57;;;13.38;32.27
40948;BME280;49382;-25.924;28.194;2022-07-05T04:44:51;85785.36;;;13.46;31.88
40948;BME280;49382;-25.924;28.194;2022-07-05T04:47:17;85788.36;;;13.29;32.15
40948;BME280;49382;-25.924;28.194;2022-07-05T04:49:42;85789.36;;;13.30;31.66
40948;BME280;49382;-25.924;28.194;2022-07-05T04:52:08;85791.03;;;13.11;31.92
40948;BME280;49382;-25.924;28.194;2022-07-05T04:54:34;85794.41;;;12.85;31.91
40948;BME280;49382;-25.924;28.194;2022-07-05T04:56:59;85790.76;;;12.74;32.55
40948;BME280;49382;-25.924;28.194;2022-07-05T04:59:25;85790.86;;;12.59;32.79
40948;BME280;49382;-25.924;28.194;2022-07-05T05:01:50;85792.99;;;12.97;32.60
40948;BME280;49382;-25.924;28.194;2022-07-05T05:04:15;85797.24;;;12.71;33.07
40948;BME280;49382;-25.924;28.194;2022-07-05T05:06:40;85795.59;;;12.64;33.13
40948;BME280;49382;-25.924;28.194;2022-07-05T05:09:06;85798.64;;;12.72;33.07
40948;BME280;49382;-25.924;28.194;2022-07-05T05:11:31;85801.63;;;12.43;33.59
40948;BME280;49382;-25.924;28.194;2022-07-05T05:13:57;85806.46;;;12.51;33.68
40948;BME280;49382;-25.924;28.194;2022-07-05T05:16:23;85795.41;;;12.71;33.13
40948;BME280;49382;-25.924;28.194;2022-07-05T05:18:48;85801.76;;;12.87;32.74
40948;BME280;49382;-25.924;28.194;2022-07-05T05:21:13;85805.26;;;13.32;32.11
40948;BME280;49382;-25.924;28.194;2022-07-05T05:23:38;85802.37;;;12.92;32.82
40948;BME280;49382;-25.924;28.194;2022-07-05T05:26:04;85802.23;;;12.81;32.60
40948;BME280;49382;-25.924;28.194;2022-07-05T05:28:29;85799.82;;;13.59;32.13
40948;BME280;49382;-25.924;28.194;2022-07-05T05:30:55;85800.87;;;13.48;32.28
40948;BME280;49382;-25.924;28.194;2022-07-05T05:33:20;85803.71;;;13.36;32.15
40948;BME280;49382;-25.924;28.194;2022-07-05T05:35:46;85803.71;;;13.34;32.67
40948;BME280;49382;-25.924;28.194;2022-07-05T05:38:12;85808.26;;;13.59;32.23
40948;BME280;49382;-25.924;28.194;2022-07-05T05:40:37;85812.76;;;13.66;31.62
40948;BME280;49382;-25.924;28.194;2022-07-05T05:43:03;85813.29;;;14.25;31.40
40948;BME280;49382;-25.924;28.194;2022-07-05T05:45:28;85814.44;;;14.17;31.33
40948;BME280;49382;-25.924;28.194;2022-07-05T05:47:56;85819.42;;;14.38;30.76
40948;BME280;49382;-25.924;28.194;2022-07-05T05:50:20;85819.67;;;14.88;31.35
40948;BME280;49382;-25.924;28.194;2022-07-05T05:52:45;85820.69;;;14.30;30.66
40948;BME280;49382;-25.924;28.194;2022-07-05T05:55:10;85819.05;;;14.65;29.98
40948;BME280;49382;-25.924;28.194;2022-07-05T05:57:35;85819.26;;;14.71;29.63
40948;BME280;49382;-25.924;28.194;2022-07-05T06:00:02;85818.11;;;15.07;29.75
40948;BME280;49382;-25.924;28.194;2022-07-05T06:02:27;85821.55;;;15.62;28.53
40948;BME280;49382;-25.924;28.194;2022-07-05T06:04:52;85822.45;;;15.16;29.19
40948;BME280;49382;-25.924;28.194;2022-07-05T06:07:18;85826.22;;;15.68;29.19
40948;BME280;49382;-25.924;28.194;2022-07-05T06:09:43;85827.20;;;14.98;29.16
40948;BME280;49382;-25.924;28.194;2022-07-05T06:12:09;85830.24;;;15.73;28.37
40948;BME280;49382;-25.924;28.194;2022-07-05T06:14:35;85832.75;;;16.38;27.69
40948;BME280;49382;-25.924;28.194;2022-07-05T06:17:01;85834.28;;;15.82;28.47
40948;BME280;49382;-25.924;28.194;2022-07-05T06:19:26;85835.95;;;15.67;27.96
40948;BME280;49382;-25.924;28.194;2022-07-05T06:21:52;85838.09;;;15.87;27.76
40948;BME280;49382;-25.924;28.194;2022-07-05T06:24:18;85841.98;;;15.62;27.23
40948;BME280;49382;-25.924;28.194;2022-07-05T06:26:43;85840.28;;;17.11;26.14
40948;BME280;49382;-25.924;28.194;2022-07-05T06:29:08;85839.42;;;17.36;27.70
40948;BME280;49382;-25.924;28.194;2022-07-05T06:31:33;85839.27;;;17.32;27.59
40948;BME280;49382;-25.924;28.194;2022-07-05T06:33:59;85840.25;;;17.26;28.50
40948;BME280;49382;-25.924;28.194;2022-07-05T06:36:24;85835.02;;;18.02;26.93
40948;BME280;49382;-25.924;28.194;2022-07-05T06:38:49;85844.15;;;17.82;26.83
40948;BME280;49382;-25.924;28.194;2022-07-05T06:41:15;85845.47;;;18.14;26.29
40948;BME280;49382;-25.924;28.194;2022-07-05T06:43:40;85848.02;;;18.26;26.11
40948;BME280;49382;-25.924;28.194;2022-07-05T06:46:06;85849.59;;;18.27;25.65
40948;BME280;49382;-25.924;28.194;2022-07-05T06:48:32;85852.28;;;18.58;25.79
40948;BME280;49382;-25.924;28.194;2022-07-05T06:50:57;85854.57;;;18.69;25.24
40948;BME280;49382;-25.924;28.194;2022-07-05T06:53:22;85853.33;;;18.21;24.98
40948;BME280;49382;-25.924;28.194;2022-07-05T06:55:48;85857.37;;;18.21;25.37
40948;BME280;49382;-25.924;28.194;2022-07-05T06:58:13;85861.10;;;19.25;25.28
40948;BME280;49382;-25.924;28.194;2022-07-05T07:00:39;85862.90;;;20.21;24.02
40948;BME280;49382;-25.924;28.194;2022-07-05T07:03:05;85863.31;;;20.38;22.79
40948;BME280;49382;-25.924;28.194;2022-07-05T07:05:30;85863.28;;;20.87;23.19
40948;BME280;49382;-25.924;28.194;2022-07-05T07:07:55;85861.54;;;20.81;22.76
40948;BME280;49382;-25.924;28.194;2022-07-05T07:10:21;85866.41;;;21.80;22.19
40948;BME280;49382;-25.924;28.194;2022-07-05T07:12:46;85864.06;;;20.57;23.22
40948;BME280;49382;-25.924;28.194;2022-07-05T07:15:11;85866.91;;;22.22;22.52
40948;BME280;49382;-25.924;28.194;2022-07-05T07:17:37;85869.66;;;21.41;22.73
40948;BME280;49382;-25.924;28.194;2022-07-05T07:20:03;85862.89;;;22.52;21.77
40948;BME280;49382;-25.924;28.194;2022-07-05T07:22:27;85865.23;;;22.47;22.49
40948;BME280;49382;-25.924;28.194;2022-07-05T07:24:53;85871.48;;;20.86;24.01
40948;BME280;49382;-25.924;28.194;2022-07-05T07:27:19;85872.99;;;23.82;22.10
40948;BME280;49382;-25.924;28.194;2022-07-05T07:29:44;85873.43;;;23.84;21.68
40948;BME280;49382;-25.924;28.194;2022-07-05T07:32:10;85875.10;;;23.94;22.83
40948;BME280;49382;-25.924;28.194;2022-07-05T07:34:35;85875.85;;;24.61;22.05
40948;BME280;49382;-25.924;28.194;2022-07-05T07:37:01;85874.02;;;24.24;21.88
40948;BME280;49382;-25.924;28.194;2022-07-05T07:39:26;85878.32;;;24.43;21.82
40948;BME280;49382;-25.924;28.194;2022-07-05T07:41:51;85881.52;;;24.57;21.76
40948;BME280;49382;-25.924;28.194;2022-07-05T07:44:17;85883.37;;;24.25;22.04
40948;BME280;49382;-25.924;28.194;2022-07-05T07:46:42;85885.16;;;25.49;21.71
40948;BME280;49382;-25.924;28.194;2022-07-05T07:49:09;85886.09;;;25.81;20.26
40948;BME280;49382;-25.924;28.194;2022-07-05T07:51:34;85887.15;;;25.72;20.90
40948;BME280;49382;-25.924;28.194;2022-07-05T07:54:00;85889.11;;;25.93;20.10
40948;BME280;49382;-25.924;28.194;2022-07-05T07:56:25;85889.55;;;26.17;20.78
40948;BME280;49382;-25.924;28.194;2022-07-05T07:58:51;85886.99;;;25.60;20.50
40948;BME280;49382;-25.924;28.194;2022-07-05T08:01:17;85885.38;;;26.16;19.75
40948;BME280;49382;-25.924;28.194;2022-07-05T08:03:43;85883.29;;;26.42;19.14
40948;BME280;49382;-25.924;28.194;2022-07-05T08:06:09;85882.47;;;26.98;18.74
40948;BME280;49382;-25.924;28.194;2022-07-05T08:08:34;85881.64;;;27.02;19.02
40948;BME280;49382;-25.924;28.194;2022-07-05T08:10:59;85880.77;;;26.87;18.91
40948;BME280;49382;-25.924;28.194;2022-07-05T08:13:25;85881.02;;;26.75;18.82
40948;BME280;49382;-25.924;28.194;2022-07-05T08:15:50;85884.47;;;26.86;18.00
40948;BME280;49382;-25.924;28.194;2022-07-05T08:18:16;85879.86;;;27.48;17.69
40948;BME280;49382;-25.924;28.194;2022-07-05T08:20:42;85876.42;;;27.81;17.62
40948;BME280;49382;-25.924;28.194;2022-07-05T08:23:08;85882.67;;;28.04;17.66
40948;BME280;49382;-25.924;28.194;2022-07-05T08:25:33;85879.79;;;28.59;17.49
40948;BME280;49382;-25.924;28.194;2022-07-05T08:27:59;85881.95;;;28.46;17.46
40948;BME280;49382;-25.924;28.194;2022-07-05T08:30:25;85883.81;;;27.83;18.27
40948;BME280;49382;-25.924;28.194;2022-07-05T08:32:50;85882.42;;;28.74;16.41
40948;BME280;49382;-25.924;28.194;2022-07-05T08:35:17;85886.89;;;29.69;16.13
40948;BME280;49382;-25.924;28.194;2022-07-05T08:37:42;85884.23;;;29.88;17.12
40948;BME280;49382;-25.924;28.194;2022-07-05T08:40:09;85888.33;;;30.11;16.41
40948;BME280;49382;-25.924;28.194;2022-07-05T08:42:34;85891.80;;;30.42;14.99
40948;BME280;49382;-25.924;28.194;2022-07-05T08:44:59;85886.50;;;30.34;16.00
40948;BME280;49382;-25.924;28.194;2022-07-05T08:47:25;85882.99;;;31.24;15.63
40948;BME280;49382;-25.924;28.194;2022-07-05T08:49:52;85883.40;;;31.22;14.71
40948;BME280;49382;-25.924;28.194;2022-07-05T08:52:18;85880.77;;;31.19;15.05
40948;BME280;49382;-25.924;28.194;2022-07-05T08:54:41;85875.10;;;31.99;14.27
40948;BME280;49382;-25.924;28.194;2022-07-05T08:57:07;85870.69;;;31.91;14.24
40948;BME280;49382;-25.924;28.194;2022-07-05T08:59:33;85873.18;;;31.19;14.31
40948;BME280;49382;-25.924;28.194;2022-07-05T09:02:00;85867.77;;;32.21;13.14
40948;BME280;49382;-25.924;28.194;2022-07-05T09:04:24;85863.65;;;33.04;13.30
40948;BME280;49382;-25.924;28.194;2022-07-05T09:06:51;85866.44;;;32.31;13.00
40948;BME280;49382;-25.924;28.194;2022-07-05T09:09:18;85862.52;;;33.29;12.02
40948;BME280;49382;-25.924;28.194;2022-07-05T09:11:42;85862.15;;;32.44;12.83
40948;BME280;49382;-25.924;28.194;2022-07-05T09:14:18;85858.01;;;33.10;12.11
40948;BME280;49382;-25.924;28.194;2022-07-05T09:16:32;85854.00;;;32.63;12.21
40948;BME280;49382;-25.924;28.194;2022-07-05T09:19:06;85855.30;;;33.13;12.70
40948;BME280;49382;-25.924;28.194;2022-07-05T09:21:25;85847.47;;;32.48;13.01
40948;BME280;49382;-25.924;28.194;2022-07-05T09:23:54;85845.73;;;33.43;13.73
40948;BME280;49382;-25.924;28.194;2022-07-05T09:26:14;85842.68;;;31.56;14.97
40948;BME280;49382;-25.924;28.194;2022-07-05T09:31:05;85824.21;;;28.94;18.03
40948;BME280;49382;-25.924;28.194;2022-07-05T09:33:31;85821.54;;;28.92;18.51
40948;BME280;49382;-25.924;28.194;2022-07-05T09:35:57;85825.63;;;27.60;18.62
40948;BME280;49382;-25.924;28.194;2022-07-05T09:38:23;85825.59;;;27.49;18.40
40948;BME280;49382;-25.924;28.194;2022-07-05T09:40:50;85824.38;;;26.92;19.68
40948;BME280;49382;-25.924;28.194;2022-07-05T09:43:15;85821.48;;;26.78;19.57
40948;BME280;49382;-25.924;28.194;2022-07-05T09:45:39;85818.32;;;26.53;19.46
40948;BME280;49382;-25.924;28.194;2022-07-05T09:48:05;85811.61;;;26.61;20.50
40948;BME280;49382;-25.924;28.194;2022-07-05T09:50:34;85808.90;;;26.36;20.99
40948;BME280;49382;-25.924;28.194;2022-07-05T09:52:56;85805.90;;;25.89;21.99
40948;BME280;49382;-25.924;28.194;2022-07-05T09:55:21;85802.59;;;26.29;20.51
40948;BME280;49382;-25.924;28.194;2022-07-05T09:57:47;85798.17;;;25.76;21.33
40948;BME280;49382;-25.924;28.194;2022-07-05T10:00:15;85789.88;;;25.14;22.10
40948;BME280;49382;-25.924;28.194;2022-07-05T10:02:39;85787.55;;;25.83;21.87
40948;BME280;49382;-25.924;28.194;2022-07-05T10:05:10;85781.12;;;25.06;22.86
40948;BME280;49382;-25.924;28.194;2022-07-05T10:07:30;85778.71;;;25.32;22.48
40948;BME280;49382;-25.924;28.194;2022-07-05T10:12:20;85768.18;;;25.52;21.88
40948;BME280;49382;-25.924;28.194;2022-07-05T10:14:45;85760.65;;;24.56;22.48
40948;BME280;49382;-25.924;28.194;2022-07-05T10:17:11;85756.47;;;24.92;22.68
40948;BME280;49382;-25.924;28.194;2022-07-05T10:19:41;85751.65;;;25.06;21.89
40948;BME280;49382;-25.924;28.194;2022-07-05T10:22:02;85745.52;;;24.87;23.64
40948;BME280;49382;-25.924;28.194;2022-07-05T10:24:33;85740.53;;;24.76;23.14
40948;BME280;49382;-25.924;28.194;2022-07-05T10:26:53;85737.54;;;24.43;23.23
40948;BME280;49382;-25.924;28.194;2022-07-05T10:29:18;85736.78;;;24.80;22.48
40948;BME280;49382;-25.924;28.194;2022-07-05T10:31:45;85731.76;;;24.67;22.52
40948;BME280;49382;-25.924;28.194;2022-07-05T10:34:09;85726.28;;;24.03;21.95
40948;BME280;49382;-25.924;28.194;2022-07-05T10:36:34;85722.54;;;23.82;22.51
40948;BME280;49382;-25.924;28.194;2022-07-05T10:39:00;85718.63;;;24.11;22.43
40948;BME280;49382;-25.924;28.194;2022-07-05T10:41:27;85709.82;;;24.05;23.51
40948;BME280;49382;-25.924;28.194;2022-07-05T10:43:54;85709.92;;;24.40;23.10
40948;BME280;49382;-25.924;28.194;2022-07-05T10:48:43;85702.77;;;24.34;22.49
40948;BME280;49382;-25.924;28.194;2022-07-05T10:51:14;85697.07;;;23.51;22.97
40948;BME280;49382;-25.924;28.194;2022-07-05T10:56:09;85686.57;;;23.31;23.67
40948;BME280;49382;-25.924;28.194;2022-07-05T10:58:27;85678.60;;;23.81;23.75
40948;BME280;49382;-25.924;28.194;2022-07-05T11:05:40;85676.72;;;23.64;24.09
40948;BME280;49382;-25.924;28.194;2022-07-05T11:08:06;85672.10;;;23.57;23.74
40948;BME280;49382;-25.924;28.194;2022-07-05T11:10:32;85671.39;;;23.83;23.63
40948;BME280;49382;-25.924;28.194;2022-07-05T11:12:57;85665.47;;;23.53;23.52
40948;BME280;49382;-25.924;28.194;2022-07-05T11:15:22;85664.82;;;23.35;23.87
40948;BME280;49382;-25.924;28.194;2022-07-05T11:17:48;85664.97;;;23.72;23.38
40948;BME280;49382;-25.924;28.194;2022-07-05T11:20:15;85661.22;;;23.45;23.87
40948;BME280;49382;-25.924;28.194;2022-07-05T11:22:40;85657.65;;;23.57;23.99
40948;BME280;49382;-25.924;28.194;2022-07-05T11:25:05;85656.06;;;23.52;23.65
40948;BME280;49382;-25.924;28.194;2022-07-05T11:27:29;85651.14;;;23.14;23.65
40948;BME280;49382;-25.924;28.194;2022-07-05T11:29:55;85647.40;;;23.20;23.56
40948;BME280;49382;-25.924;28.194;2022-07-05T11:32:22;85646.10;;;23.44;23.66
40948;BME280;49382;-25.924;28.194;2022-07-05T11:34:48;85645.49;;;23.52;23.48
40948;BME280;49382;-25.924;28.194;2022-07-05T11:37:19;85640.72;;;23.12;22.34
40948;BME280;49382;-25.924;28.194;2022-07-05T11:39:37;85637.80;;;23.26;22.22
40948;BME280;49382;-25.924;28.194;2022-07-05T11:42:02;85634.26;;;23.30;22.90
40948;BME280;49382;-25.924;28.194;2022-07-05T11:44:32;85634.05;;;22.65;23.34
40948;BME280;49382;-25.924;28.194;2022-07-05T11:46:53;85623.00;;;22.95;22.85
40948;BME280;49382;-25.924;28.194;2022-07-05T11:49:21;85624.92;;;22.38;23.20
40948;BME280;49382;-25.924;28.194;2022-07-05T11:54:10;85618.88;;;23.28;22.80
40948;BME280;49382;-25.924;28.194;2022-07-05T11:56:36;85615.80;;;22.92;23.01
40948;BME280;49382;-25.924;28.194;2022-07-05T11:59:00;85614.03;;;22.49;22.70
40948;BME280;49382;-25.924;28.194;2022-07-05T12:01:26;85613.20;;;22.61;22.76
40948;BME280;49382;-25.924;28.194;2022-07-05T12:03:55;85609.39;;;22.49;23.13
40948;BME280;49382;-25.924;28.194;2022-07-05T12:06:16;85613.05;;;22.85;23.50
40948;BME280;49382;-25.924;28.194;2022-07-05T12:08:42;85609.41;;;22.86;23.56
40948;BME280;49382;-25.924;28.194;2022-07-05T12:11:10;85609.07;;;22.89;23.58
40948;BME280;49382;-25.924;28.194;2022-07-05T12:16:00;85602.31;;;22.51;22.52
40948;BME280;49382;-25.924;28.194;2022-07-05T12:18:23;85599.70;;;22.36;22.20
40948;BME280;49382;-25.924;28.194;2022-07-05T12:20:49;85596.85;;;22.47;22.08
40948;BME280;49382;-25.924;28.194;2022-07-05T12:23:14;85596.72;;;22.66;21.82
40948;BME280;49382;-25.924;28.194;2022-07-05T12:25:39;85595.43;;;22.33;22.22
40948;BME280;49382;-25.924;28.194;2022-07-05T12:28:05;85593.71;;;22.50;22.16
40948;BME280;49382;-25.924;28.194;2022-07-05T12:30:31;85593.42;;;22.40;22.67
40948;BME280;49382;-25.924;28.194;2022-07-05T12:33:00;85591.13;;;22.51;22.76
40948;BME280;49382;-25.924;28.194;2022-07-05T12:35:30;85591.14;;;22.68;22.39
40948;BME280;49382;-25.924;28.194;2022-07-05T12:37:47;85590.00;;;22.02;22.39
40948;BME280;49382;-25.924;28.194;2022-07-05T12:40:12;85588.05;;;22.36;21.84
40948;BME280;49382;-25.924;28.194;2022-07-05T12:42:39;85584.22;;;22.24;21.77
40948;BME280;49382;-25.924;28.194;2022-07-05T12:45:08;85583.51;;;21.94;22.26
40948;BME280;49382;-25.924;28.194;2022-07-05T12:47:28;85582.15;;;21.72;22.18
40948;BME280;49382;-25.924;28.194;2022-07-05T12:49:55;85581.80;;;21.64;22.34
40948;BME280;49382;-25.924;28.194;2022-07-05T12:52:19;85583.45;;;22.23;22.62